createdAt,value
2023-01-03T00:00:59.495Z,1.27
2023-01-03T00:03:37.285Z,1.95
2023-01-03T00:06:15.939Z,2.22
2023-01-03T00:08:45.889Z,1.48
2023-01-03T00:11:16.363Z,0.90
2023-01-03T00:13:45.151Z,0.65
2023-01-03T00:16:19.350Z,2.72
2023-01-03T00:18:48.830Z,1.25
2023-01-03T00:21:19.627Z,1.83
2023-01-03T00:23:48.767Z,1.02
2023-01-03T00:26:18.600Z,1.75
2023-01-03T00:28:47.718Z,2.10
2023-01-03T00:31:17.117Z,0.63
2023-01-03T00:33:46.343Z,0.50
2023-01-03T00:36:15.723Z,1.88
2023-01-03T00:38:46.457Z,0.85
2023-01-03T00:41:17.546Z,2.55
2023-01-03T00:43:49.286Z,1.60
2023-01-03T00:46:21.434Z,1.67
2023-01-03T00:48:51.047Z,0.47
2023-01-03T00:51:22.239Z,1.65
2023-01-03T00:53:56.254Z,0.90
2023-01-03T00:56:29.193Z,4.82
2023-01-03T00:58:58.739Z,1.65
2023-01-03T01:01:30.683Z,1.08
2023-01-03T01:04:01.793Z,2.22
2023-01-03T01:06:34.025Z,1.20
2023-01-03T01:09:07.354Z,0.50
2023-01-03T01:11:36.942Z,1.25
2023-01-03T01:14:19.794Z,0.90
2023-01-03T01:16:51.100Z,0.70
2023-01-03T01:19:21.588Z,5.20
2023-01-03T01:21:51.127Z,1.02
2023-01-03T01:24:21.876Z,2.75
2023-01-03T01:26:51.365Z,0.95
2023-01-03T01:29:21.234Z,3.60
2023-01-03T01:31:51.374Z,3.20
2023-01-03T01:34:20.881Z,0.93
2023-01-03T01:36:50.847Z,4.35
2023-01-03T01:39:23.443Z,1.02
2023-01-03T01:42:19.059Z,1.65
2023-01-03T01:44:55.556Z,1.10
2023-01-03T01:47:49.460Z,3.20
2023-01-03T01:50:23.470Z,0.57
2023-01-03T01:52:56.250Z,3.38
2023-01-03T01:55:32.204Z,1.55
2023-01-03T01:58:02.928Z,1.60
2023-01-03T02:00:33.680Z,2.58
2023-01-03T02:03:03.389Z,4.43
2023-01-03T02:05:35.596Z,5.25
2023-01-03T02:08:05.849Z,3.10
2023-01-03T02:10:54.369Z,1.20
2023-01-03T02:13:32.754Z,1.85
2023-01-03T02:16:19.005Z,1.65
2023-01-03T02:18:56.134Z,2.08
2023-01-03T02:22:04.456Z,1.98
2023-01-03T02:24:54.491Z,2.40
2023-01-03T02:27:57.012Z,0.93
2023-01-03T02:30:40.844Z,2.38
2023-01-03T02:33:23.942Z,2.88
2023-01-03T02:36:02.464Z,6.05
2023-01-03T02:38:43.888Z,3.67
2023-01-03T02:41:24.522Z,2.17
2023-01-03T02:43:57.557Z,6.53
2023-01-03T02:46:32.950Z,1.08
2023-01-03T02:49:10.130Z,5.72
2023-01-03T02:51:44.853Z,2.45
2023-01-03T02:54:19.769Z,2.08
2023-01-03T02:56:53.895Z,2.97
2023-01-03T02:59:31.320Z,4.28
2023-01-03T03:02:05.780Z,3.60
2023-01-03T03:04:39.043Z,2.13
2023-01-03T03:07:14.913Z,6.57
2023-01-03T03:09:57.894Z,2.85
2023-01-03T03:12:48.116Z,2.55
2023-01-03T03:15:22.922Z,3.60
2023-01-03T03:17:58.971Z,7.30
2023-01-03T03:23:37.499Z,3.70
2023-01-03T03:26:12.360Z,2.47
2023-01-03T03:28:44.394Z,1.75
2023-01-03T03:36:24.048Z,2.38
2023-01-03T03:38:53.332Z,2.80
2023-01-03T03:42:01.175Z,5.00
2023-01-03T03:44:53.561Z,2.13
2023-01-03T03:47:30.831Z,4.80
2023-01-03T03:50:04.609Z,2.58
2023-01-03T03:52:36.598Z,2.90
2023-01-03T03:55:12.054Z,3.67
2023-01-03T03:57:47.365Z,2.47
2023-01-03T04:00:22.166Z,1.13
2023-01-03T04:02:53.409Z,3.40
2023-01-03T04:05:26.007Z,4.10
2023-01-03T04:07:56.871Z,4.80
2023-01-03T04:10:26.486Z,2.47
2023-01-03T04:12:56.976Z,3.35
2023-01-03T04:15:26.088Z,1.95
2023-01-03T04:17:55.798Z,4.72
2023-01-03T04:20:25.444Z,4.03
2023-01-03T04:22:56.451Z,3.38
2023-01-03T04:25:25.868Z,0.85
2023-01-03T04:27:55.195Z,1.70
2023-01-03T04:30:25.029Z,3.60
2023-01-03T04:32:54.399Z,3.83
2023-01-03T04:35:23.589Z,1.60
2023-01-03T04:37:52.979Z,4.38
2023-01-03T04:40:23.480Z,2.47
2023-01-03T04:43:11.113Z,1.48
2023-01-03T04:45:40.647Z,5.85
2023-01-03T04:48:10.152Z,4.85
2023-01-03T04:50:39.205Z,1.10
2023-01-03T04:53:08.939Z,1.65
2023-01-03T04:55:39.441Z,3.40
2023-01-03T04:58:08.928Z,1.15
2023-01-03T05:00:38.045Z,2.95
2023-01-03T05:03:07.572Z,4.22
2023-01-03T05:05:38.728Z,1.48
2023-01-03T05:08:09.979Z,1.73
2023-01-03T05:10:42.213Z,4.80
2023-01-03T05:13:11.730Z,3.35
2023-01-03T05:15:41.336Z,5.65
2023-01-03T05:18:10.919Z,2.00
2023-01-03T05:20:58.229Z,6.75
2023-01-03T05:23:45.111Z,2.03
2023-01-03T05:26:17.288Z,1.85
2023-01-03T05:28:50.430Z,1.05
2023-01-03T05:31:19.784Z,2.47
2023-01-03T05:33:49.373Z,2.25
2023-01-03T05:36:18.440Z,2.20
2023-01-03T05:38:47.815Z,2.88
2023-01-03T05:41:38.985Z,2.20
2023-01-03T05:44:08.659Z,3.35
2023-01-03T05:46:38.089Z,3.15
2023-01-03T05:49:07.788Z,2.47
2023-01-03T05:51:36.929Z,2.05
2023-01-03T05:54:06.808Z,5.50
2023-01-03T05:56:38.120Z,3.30
2023-01-03T05:59:07.868Z,3.95
2023-01-03T06:01:37.420Z,1.55
2023-01-03T06:04:07.797Z,6.03
2023-01-03T06:06:37.042Z,3.13
2023-01-03T06:09:06.442Z,6.38
2023-01-03T06:11:36.981Z,3.42
2023-01-03T06:14:06.480Z,3.08
2023-01-03T06:17:01.463Z,3.40
2023-01-03T06:19:31.131Z,5.03
2023-01-03T06:22:01.766Z,2.20
2023-01-03T06:24:32.728Z,6.55
2023-01-03T06:27:03.301Z,6.70
2023-01-03T06:29:32.657Z,2.97
2023-01-03T06:32:08.624Z,2.90
2023-01-03T06:34:39.049Z,4.22
2023-01-03T06:37:08.176Z,4.25
2023-01-03T06:39:37.578Z,19.35
2023-01-03T06:42:24.946Z,3.80
2023-01-03T06:45:08.171Z,6.10
2023-01-03T06:47:55.908Z,2.75
2023-01-03T06:50:42.645Z,3.20
2023-01-03T06:53:15.745Z,2.58
2023-01-03T06:55:52.724Z,1.60
2023-01-03T06:58:26.921Z,5.15
2023-01-03T07:00:58.326Z,3.38
2023-01-03T07:03:27.512Z,1.58
2023-01-03T07:05:57.001Z,5.00
2023-01-03T07:08:26.320Z,1.95
2023-01-03T07:10:56.769Z,1.70
2023-01-03T07:13:44.905Z,6.70
2023-01-03T07:16:16.183Z,4.63
2023-01-03T07:18:54.378Z,2.53
2023-01-03T07:21:24.968Z,1.88
2023-01-03T07:23:54.922Z,5.20
2023-01-03T07:26:25.773Z,2.20
2023-01-03T07:28:56.509Z,3.35
2023-01-03T07:31:26.047Z,3.13
2023-01-03T07:33:55.351Z,7.18
2023-01-03T07:36:24.909Z,4.15
2023-01-03T07:38:57.590Z,2.50
2023-01-03T07:41:47.109Z,5.50
2023-01-03T07:44:16.930Z,5.18
2023-01-03T07:46:46.548Z,7.28
2023-01-03T07:49:15.861Z,6.68
2023-01-03T07:51:45.255Z,4.32
2023-01-03T07:54:14.408Z,3.05
2023-01-03T07:56:43.971Z,2.78
2023-01-03T07:59:13.235Z,3.33
2023-01-03T08:01:44.176Z,3.47
2023-01-03T08:04:13.500Z,4.13
2023-01-03T08:06:42.997Z,6.60
2023-01-03T08:09:29.656Z,6.57
2023-01-03T08:12:16.644Z,4.22
2023-01-03T08:14:45.819Z,1.83
2023-01-03T08:17:16.843Z,4.50
2023-01-03T08:19:46.347Z,7.82
2023-01-03T08:22:15.881Z,10.32
2023-01-03T08:24:45.102Z,4.82
2023-01-03T08:27:14.784Z,6.72
2023-01-03T08:29:44.087Z,6.57
2023-01-03T08:32:13.948Z,7.25
2023-01-03T08:34:48.558Z,7.18
2023-01-03T08:37:19.312Z,4.00
2023-01-03T08:39:52.390Z,4.18
2023-01-03T08:42:24.098Z,4.40
2023-01-03T08:45:01.354Z,6.18
2023-01-03T08:47:31.399Z,2.65
2023-01-03T08:50:02.189Z,7.03
2023-01-03T08:52:35.072Z,6.18
2023-01-03T08:55:04.917Z,4.43
2023-01-03T08:57:34.485Z,2.30
2023-01-03T09:00:04.217Z,6.28
2023-01-03T09:02:36.903Z,2.20
2023-01-03T09:05:09.581Z,4.30
2023-01-03T09:07:38.842Z,6.85
2023-01-03T09:10:09.263Z,5.47
2023-01-03T09:12:38.788Z,2.15
2023-01-03T09:15:08.965Z,6.22
2023-01-03T09:17:38.226Z,4.93
2023-01-03T09:20:10.678Z,4.50
2023-01-03T09:22:40.067Z,10.63
2023-01-03T09:25:10.790Z,7.05
2023-01-03T09:27:40.074Z,6.20
2023-01-03T09:30:10.370Z,8.15
2023-01-03T09:32:39.445Z,4.95
2023-01-03T09:35:11.267Z,3.63
2023-01-03T09:37:45.357Z,6.22
2023-01-03T09:40:18.431Z,6.60
2023-01-03T09:43:05.324Z,6.43
2023-01-03T09:45:36.020Z,6.45
2023-01-03T09:48:06.943Z,4.22
2023-01-03T09:51:14.202Z,4.78
2023-01-03T09:53:52.709Z,8.38
2023-01-03T09:56:39.558Z,3.22
2023-01-03T09:59:32.096Z,5.80
2023-01-03T10:02:37.696Z,2.45
2023-01-03T10:05:26.744Z,3.38
2023-01-03T10:08:17.345Z,5.70
2023-01-03T10:10:53.732Z,4.95
2023-01-03T10:13:33.396Z,7.40
2023-01-03T10:16:10.719Z,2.40
2023-01-03T10:18:53.090Z,6.13
2023-01-03T10:21:32.915Z,4.30
2023-01-03T10:24:15.035Z,3.35
2023-01-03T10:26:44.323Z,4.78
2023-01-03T10:29:19.267Z,5.50
2023-01-03T10:32:04.452Z,5.88
2023-01-03T10:34:33.867Z,4.57
2023-01-03T10:37:19.083Z,6.15
2023-01-03T10:40:02.355Z,14.52
2023-01-03T10:42:35.102Z,7.63
2023-01-03T10:45:07.725Z,3.38
2023-01-03T10:47:37.012Z,3.40
2023-01-03T10:50:08.683Z,4.78
2023-01-03T10:52:42.291Z,7.72
2023-01-03T10:55:17.429Z,6.20
2023-01-03T10:57:58.048Z,5.82
2023-01-03T11:00:31.096Z,4.57
2023-01-03T11:03:16.401Z,4.82
2023-01-03T11:05:47.879Z,4.10
2023-01-03T11:08:21.183Z,6.88
2023-01-03T11:10:55.337Z,5.85
2023-01-03T11:13:32.807Z,8.90
2023-01-03T11:16:04.657Z,6.25
2023-01-03T11:18:34.116Z,3.38
2023-01-03T11:21:15.094Z,5.32
2023-01-03T11:24:04.668Z,5.60
2023-01-03T11:26:45.371Z,2.47
2023-01-03T11:29:29.903Z,4.70
2023-01-03T11:32:11.764Z,2.43
2023-01-03T11:38:06.460Z,2.78
2023-01-03T11:40:44.681Z,3.72
2023-01-03T11:43:32.389Z,3.10
2023-01-03T11:46:25.783Z,5.43
2023-01-03T11:49:21.071Z,2.97
2023-01-03T11:52:01.889Z,4.10
2023-01-03T11:54:54.333Z,5.28
2023-01-03T11:57:34.575Z,8.23
2023-01-03T12:00:18.234Z,5.00
2023-01-03T12:03:01.885Z,4.95
2023-01-03T12:05:49.160Z,10.05
2023-01-03T12:08:51.061Z,7.80
2023-01-03T12:11:54.441Z,2.28
2023-01-03T12:14:27.805Z,5.32
2023-01-03T12:17:04.816Z,5.82
2023-01-03T12:19:38.260Z,2.58
2023-01-03T12:22:17.771Z,3.72
2023-01-03T12:24:51.974Z,7.03
2023-01-03T12:27:29.206Z,4.53
2023-01-03T12:30:04.699Z,6.70
2023-01-03T12:32:43.096Z,10.07
2023-01-03T12:35:28.953Z,4.45
2023-01-03T12:40:40.535Z,7.35
2023-01-03T12:43:15.643Z,8.90
2023-01-03T12:45:51.482Z,6.40
2023-01-03T12:48:50.396Z,3.90
2023-01-03T12:51:22.742Z,5.60
2023-01-03T12:54:00.961Z,2.92
2023-01-03T12:56:50.423Z,7.10
2023-01-03T12:59:40.298Z,7.38
2023-01-03T13:02:22.497Z,3.55
2023-01-03T13:04:57.875Z,5.82
2023-01-03T13:07:30.052Z,8.23
2023-01-03T13:10:03.888Z,10.02
2023-01-03T13:12:35.294Z,6.60
2023-01-03T13:15:16.379Z,4.32
2023-01-03T13:17:47.266Z,3.22
2023-01-03T13:20:36.475Z,4.75
2023-01-03T13:23:35.557Z,4.88
2023-01-03T13:26:25.672Z,6.60
2023-01-03T13:29:35.735Z,4.30
2023-01-03T13:32:16.489Z,7.13
2023-01-03T13:34:46.021Z,6.32
2023-01-03T13:37:21.457Z,7.95
2023-01-03T13:41:07.468Z,4.97
2023-01-03T13:43:23.072Z,5.88
2023-01-03T13:45:55.322Z,5.65
2023-01-03T13:48:33.983Z,2.95
2023-01-03T13:51:39.267Z,5.43
2023-01-03T13:54:55.875Z,7.80
2023-01-03T13:57:39.736Z,2.13
2023-01-03T14:00:22.596Z,5.32
2023-01-03T14:03:23.020Z,5.25
2023-01-03T14:06:21.381Z,3.83
2023-01-03T14:09:22.385Z,2.17
2023-01-03T14:12:13.617Z,10.38
2023-01-03T14:14:44.175Z,8.55
2023-01-03T14:17:22.476Z,5.55
2023-01-03T14:19:55.986Z,5.32
2023-01-03T14:22:31.896Z,3.90
2023-01-03T14:25:01.471Z,6.63
2023-01-03T14:27:37.871Z,2.85
2023-01-03T14:30:20.853Z,5.03
2023-01-03T14:32:50.372Z,6.20
2023-01-03T14:35:39.836Z,8.15
2023-01-03T14:38:24.679Z,2.30
2023-01-03T14:40:55.831Z,6.20
2023-01-03T14:43:27.382Z,8.48
2023-01-03T14:45:58.465Z,5.18
2023-01-03T14:48:28.032Z,3.75
2023-01-03T14:51:01.032Z,7.28
2023-01-03T14:53:31.191Z,7.25
2023-01-03T14:56:00.959Z,7.85
2023-01-03T14:58:35.534Z,9.27
2023-01-03T15:01:08.232Z,9.93
2023-01-03T15:03:42.215Z,7.95
2023-01-03T15:06:20.803Z,4.60
2023-01-03T15:08:52.574Z,1.92
2023-01-03T15:11:32.138Z,5.13
2023-01-03T15:14:05.836Z,5.63
2023-01-03T15:16:37.464Z,3.85
2023-01-03T15:19:13.907Z,6.95
2023-01-03T15:21:43.985Z,12.15
2023-01-03T15:24:17.381Z,3.45
2023-01-03T15:26:48.196Z,6.03
2023-01-03T15:29:20.786Z,7.18
2023-01-03T15:31:56.752Z,7.47
2023-01-03T15:34:36.979Z,8.57
2023-01-03T15:37:13.344Z,8.88
2023-01-03T15:39:46.211Z,6.22
2023-01-03T15:42:46.055Z,4.03
2023-01-03T15:45:23.024Z,11.65
2023-01-03T15:47:54.576Z,6.18
2023-01-03T15:50:26.536Z,4.43
2023-01-03T15:52:55.869Z,5.80
2023-01-03T15:55:25.985Z,5.15
2023-01-03T15:57:55.178Z,7.22
2023-01-03T16:00:27.177Z,6.00
2023-01-03T16:02:56.389Z,4.70
2023-01-03T16:05:25.887Z,7.78
2023-01-03T16:07:54.990Z,5.80
2023-01-03T16:10:24.603Z,8.15
2023-01-03T16:12:53.731Z,11.07
2023-01-03T16:15:25.459Z,11.05
2023-01-03T16:17:54.633Z,7.70
2023-01-03T16:20:24.224Z,12.45
2023-01-03T16:23:01.052Z,4.97
2023-01-03T16:25:31.251Z,4.10
2023-01-03T16:28:00.354Z,9.15
2023-01-03T16:30:31.205Z,11.48
2023-01-03T16:33:01.403Z,9.15
2023-01-03T16:35:31.011Z,10.75
2023-01-03T16:38:00.070Z,11.55
2023-01-03T16:40:29.617Z,9.52
2023-01-03T16:42:58.940Z,14.30
2023-01-03T16:45:28.410Z,13.75
2023-01-03T16:47:59.969Z,7.00
2023-01-03T16:50:29.783Z,15.02
2023-01-03T16:52:59.148Z,14.35
2023-01-03T16:55:32.335Z,9.45
2023-01-03T16:58:01.675Z,4.60
2023-01-03T17:00:33.462Z,4.68
2023-01-03T17:03:04.362Z,4.82
2023-01-03T17:05:39.097Z,4.72
2023-01-03T17:08:16.867Z,5.18
2023-01-03T17:10:49.204Z,6.75
2023-01-03T17:13:31.104Z,5.63
2023-01-03T17:16:01.550Z,4.13
2023-01-03T17:18:38.968Z,3.53
2023-01-03T17:21:16.634Z,5.32
2023-01-03T17:23:47.426Z,5.68
2023-01-03T17:26:20.877Z,3.53
2023-01-03T17:28:51.040Z,4.20
2023-01-03T17:31:25.395Z,9.27
2023-01-03T17:33:56.385Z,4.53
2023-01-03T17:36:28.361Z,6.30
2023-01-03T17:39:01.942Z,5.22
2023-01-03T17:41:52.498Z,4.93
2023-01-03T17:44:21.709Z,8.70
2023-01-03T17:47:14.090Z,7.30
2023-01-03T17:49:44.805Z,5.28
2023-01-03T17:52:24.481Z,3.95
2023-01-03T17:54:53.731Z,4.25
2023-01-03T17:57:23.724Z,5.07
2023-01-03T17:59:53.001Z,5.60
2023-01-03T18:02:26.179Z,4.63
2023-01-03T18:07:47.061Z,8.20
2023-01-03T18:10:18.497Z,4.22
2023-01-03T18:12:48.161Z,5.18
2023-01-03T18:15:19.474Z,13.45
2023-01-03T18:17:50.199Z,4.93
2023-01-03T18:20:21.595Z,12.73
2023-01-03T18:22:51.495Z,18.75
2023-01-03T18:25:23.879Z,19.40
2023-01-03T18:27:56.489Z,20.35
2023-01-03T18:30:25.867Z,8.07
2023-01-03T18:32:55.351Z,10.88
2023-01-03T18:35:32.354Z,13.27
2023-01-03T18:38:06.364Z,31.98
2023-01-03T18:40:35.750Z,20.88
2023-01-03T18:43:13.619Z,26.77
2023-01-03T18:45:43.785Z,11.32
2023-01-03T18:48:16.841Z,9.82
2023-01-03T18:50:55.630Z,11.88
2023-01-03T18:53:31.343Z,11.05
2023-01-03T18:56:00.875Z,14.93
2023-01-03T18:58:35.508Z,12.30
2023-01-03T19:01:05.916Z,13.20
2023-01-03T19:03:36.799Z,17.00
2023-01-03T19:06:18.127Z,15.75
2023-01-03T19:08:48.450Z,11.55
2023-01-03T19:11:20.870Z,15.98
2023-01-03T19:13:54.999Z,13.98
2023-01-03T19:16:26.470Z,12.80
2023-01-03T19:18:56.586Z,13.05
2023-01-03T19:21:31.678Z,16.17
2023-01-03T19:24:04.727Z,40.08
2023-01-03T19:26:37.763Z,38.33
2023-01-03T19:29:12.960Z,39.65
2023-01-03T19:31:44.985Z,20.53
2023-01-03T19:34:19.318Z,21.90
2023-01-03T19:36:50.621Z,12.73
2023-01-03T19:39:25.632Z,8.52
2023-01-03T19:42:16.078Z,7.88
2023-01-03T19:44:46.206Z,22.67
2023-01-03T19:47:18.122Z,9.15
2023-01-03T19:49:48.724Z,9.65
2023-01-03T19:52:19.720Z,6.90
2023-01-03T19:54:49.165Z,7.47
2023-01-03T19:57:23.291Z,7.30
2023-01-03T19:59:56.415Z,9.48
2023-01-03T20:02:39.253Z,15.73
2023-01-03T20:05:16.819Z,9.35
2023-01-03T20:07:49.533Z,8.65
2023-01-03T20:10:20.808Z,74.10
2023-01-03T20:12:51.155Z,22.23
2023-01-03T20:15:25.861Z,31.02
2023-01-03T20:17:57.158Z,25.65
2023-01-03T20:20:30.717Z,5.28
2023-01-03T20:23:07.069Z,6.40
2023-01-03T20:25:38.162Z,4.95
2023-01-03T20:28:07.818Z,4.65
2023-01-03T20:30:38.976Z,6.35
2023-01-03T20:33:08.258Z,5.63
2023-01-03T20:36:09.768Z,23.60
2023-01-03T20:38:28.691Z,29.67
2023-01-03T20:40:58.985Z,17.65
2023-01-03T20:43:28.608Z,9.35
2023-01-03T20:45:59.732Z,9.13
2023-01-03T20:48:29.158Z,13.80
2023-01-03T20:50:59.848Z,11.13
2023-01-03T20:53:31.019Z,9.32
2023-01-03T20:56:00.538Z,9.07
2023-01-03T20:58:29.676Z,9.75
2023-01-03T21:01:05.012Z,9.85
2023-01-03T21:03:35.761Z,10.15
2023-01-03T21:06:17.136Z,9.38
2023-01-03T21:08:58.207Z,10.15
2023-01-03T21:11:29.831Z,8.50
2023-01-03T21:14:00.598Z,10.13
2023-01-03T21:16:33.377Z,11.18
2023-01-03T21:19:07.618Z,6.40
2023-01-03T21:21:37.443Z,8.00
2023-01-03T21:24:09.096Z,12.98
2023-01-03T21:26:38.580Z,7.18
2023-01-03T21:29:07.821Z,16.27
2023-01-03T21:31:39.057Z,11.68
2023-01-03T21:34:13.978Z,8.05
2023-01-03T21:36:43.597Z,15.85
2023-01-03T21:39:14.145Z,14.85
2023-01-03T21:41:57.440Z,9.38
2023-01-03T21:44:26.514Z,18.98
2023-01-03T21:46:55.900Z,16.23
2023-01-03T21:49:25.014Z,15.25
2023-01-03T21:51:54.635Z,9.35
2023-01-03T21:54:25.373Z,9.05
2023-01-03T21:56:54.859Z,5.88
2023-01-03T21:59:24.092Z,6.15
2023-01-03T22:02:11.285Z,10.75
2023-01-03T22:04:40.621Z,9.25
2023-01-03T22:07:10.140Z,9.60
2023-01-03T22:09:58.059Z,9.90
2023-01-03T22:12:27.485Z,7.10
2023-01-03T22:14:56.568Z,7.90
2023-01-03T22:17:25.921Z,6.53
2023-01-03T22:19:55.114Z,7.88
2023-01-03T22:22:24.493Z,11.00
2023-01-03T22:24:54.978Z,6.65
2023-01-03T22:27:24.465Z,7.78
2023-01-03T22:29:53.759Z,6.57
2023-01-03T22:32:24.986Z,7.20
2023-01-03T22:34:54.421Z,13.50
2023-01-03T22:37:23.955Z,12.82
2023-01-03T22:39:54.912Z,11.38
2023-01-03T22:42:24.301Z,8.32
2023-01-03T22:44:53.478Z,16.27
2023-01-03T22:47:24.120Z,14.38
2023-01-03T22:49:53.628Z,15.50
2023-01-03T22:52:23.143Z,17.80
2023-01-03T22:54:53.923Z,10.52
2023-01-03T22:57:23.381Z,9.32
2023-01-03T22:59:52.585Z,10.52
2023-01-03T23:02:27.942Z,8.93
2023-01-03T23:04:57.490Z,10.07
2023-01-03T23:07:26.875Z,7.55
2023-01-03T23:09:57.329Z,16.63
2023-01-03T23:12:44.462Z,9.68
2023-01-03T23:15:13.583Z,13.30
2023-01-03T23:17:57.882Z,10.85
2023-01-03T23:20:29.986Z,8.85
2023-01-03T23:23:03.042Z,27.45
2023-01-03T23:25:36.752Z,6.85
2023-01-03T23:28:06.498Z,12.35
2023-01-03T23:30:36.319Z,8.52
2023-01-03T23:33:06.025Z,9.35
2023-01-03T23:35:35.367Z,9.70
2023-01-03T23:38:04.847Z,7.80
2023-01-03T23:40:35.713Z,6.03
2023-01-03T23:43:05.072Z,9.77
2023-01-03T23:45:34.258Z,8.60
2023-01-03T23:48:03.780Z,6.18
2023-01-03T23:50:32.894Z,10.80
2023-01-03T23:53:02.301Z,6.95
2023-01-03T23:55:31.462Z,11.02
2023-01-03T23:58:02.275Z,16.05
